.
WxDataArchive / Data Records for 2010-01-15
2010-01-14 January 2010 2010-01-16

Data Records for Friday, 15 January 2010

Time	Temp	Chill	HIndex	Humid	Dewpt	 Wind 	HiWind	WindDir	Rain 	Barom 
-----	----	-----	------	-----	-----	------	------	-------	-----	----- 
00:00	38.6	38.6	38.6	77	32.0	2	4	248	0.00	30.141 
00:05	38.6	38.6	38.6	77	32.0	2	5	248	0.00	30.141 
00:10	38.8	38.8	38.8	78	32.5	2	4	248	0.00	30.141 
00:15	38.8	38.8	38.8	78	32.5	1	5	248	0.00	30.137 
00:20	38.8	38.8	38.8	79	32.9	1	5	225	0.01	30.137 
00:25	38.8	38.8	38.8	79	32.9	2	6	248	0.00	30.137 
00:30	38.9	38.9	38.9	79	33.0	3	9	248	0.00	30.136 
00:35	39.1	39.1	39.1	79	33.1	2	6	248	0.00	30.136 
00:40	39.1	39.1	39.1	79	33.1	3	7	248	0.00	30.136 
00:45	39.2	39.2	39.2	79	33.2	1	6	248	0.00	30.135 
00:50	39.1	39.1	39.1	79	33.1	2	7	248	0.00	30.135 
00:55	39.2	39.2	39.2	79	33.2	2	9	248	0.01	30.135 
01:00	39.1	39.1	39.1	78	32.8	2	5	248	0.00	30.134 
01:05	39.1	39.1	39.1	78	32.8	3	6	248	0.00	30.134 
01:10	38.9	38.9	38.9	78	32.6	2	5	248	0.00	30.134 
01:15	38.9	38.9	38.9	78	32.6	2	5	248	0.00	30.133 
01:20	38.9	38.9	38.9	78	32.6	2	5	248	0.00	30.133 
01:25	38.8	38.8	38.8	78	32.5	1	5	248	0.00	30.133 
01:30	38.8	38.8	38.8	79	32.9	2	5	248	0.00	30.132 
01:35	38.6	38.6	38.6	79	32.7	1	5	248	0.00	30.132 
01:40	38.5	38.5	38.5	79	32.6	1	3	270	0.00	30.132 
01:45	38.5	38.5	38.5	79	32.6	2	5	248	0.01	30.132 
01:50	38.5	38.5	38.5	79	32.6	1	4	248	0.00	30.132 
01:55	38.5	38.5	38.5	79	32.6	1	4	248	0.00	30.132 
02:00	38.5	38.5	38.5	79	32.6	1	4	248	0.00	30.133 
02:05	38.5	38.5	38.5	79	32.6	0	2	248	0.00	30.133 
02:10	38.5	38.5	38.5	79	32.6	1	3	248	0.00	30.133 
02:15	38.5	38.5	38.5	79	32.6	1	3	248	0.00	30.135 
02:20	38.5	38.5	38.5	79	32.6	1	4	248	0.00	30.135 
02:25	38.5	38.5	38.5	79	32.6	1	4	248	0.00	30.135 
02:30	38.5	38.5	38.5	78	32.2	1	2	248	0.00	30.136 
02:35	38.5	38.5	38.5	78	32.2	1	4	225	0.00	30.136 
02:40	38.3	38.3	38.3	78	32.1	1	3	248	0.00	30.136 
02:45	38.2	38.2	38.2	79	32.3	0	3	248	0.00	30.139 
02:50	38.2	38.2	38.2	79	32.3	1	3	248	0.00	30.139 
02:55	38.0	38.0	38.0	79	32.1	1	3	248	0.00	30.139 
03:00	37.9	37.9	37.9	79	32.0	0	2	248	0.00	30.144 
03:05	37.8	37.8	37.8	79	31.9	1	3	270	0.00	30.144 
03:10	37.8	37.8	37.8	80	32.2	0	3	248	0.00	30.144 
03:15	37.6	37.6	37.6	80	32.0	0	2	248	0.00	30.152 
03:20	37.6	37.6	37.6	80	32.0	1	5	248	0.01	30.152 
03:25	37.5	37.5	37.5	80	31.9	0	2	248	0.00	30.152 
03:30	37.5	37.5	37.5	81	32.2	1	3	248	0.00	30.154 
03:35	37.5	37.5	37.5	81	32.2	1	3	248	0.00	30.154 
03:40	37.5	37.5	37.5	81	32.2	1	3	248	0.00	30.154 
03:45	37.5	37.5	37.5	81	32.2	1	4	248	0.00	30.156 
03:50	37.5	37.5	37.5	81	32.2	1	4	248	0.00	30.156 
03:55	37.3	37.3	37.3	81	32.0	0	2	248	0.00	30.156 
04:00	37.3	37.3	37.3	81	32.0	0	2	248	0.00	30.156 
04:05	37.2	37.2	37.2	81	31.9	0	2	248	0.00	30.156 
04:10	37.2	37.2	37.2	81	31.9	0	2	248	0.00	30.156 
04:15	37.0	37.0	37.0	82	32.0	0	2	248	0.00	30.164 
04:20	37.0	37.0	37.0	82	32.0	0	2	248	0.00	30.164 
04:25	37.0	37.0	37.0	82	32.0	0	1	248	0.00	30.164 
04:30	36.9	36.9	36.9	83	32.2	0	3	248	0.00	30.168 
04:35	36.9	36.9	36.9	83	32.2	0	2	248	0.00	30.168 
04:40	36.9	36.9	36.9	83	32.2	0	2	248	0.00	30.168 
04:45	36.8	36.8	36.8	83	32.1	0	1	248	0.00	30.173 
04:50	36.8	36.8	36.8	84	32.4	0	3	248	0.00	30.173 
04:55	36.6	36.6	36.6	84	32.2	0	1	248	0.00	30.173 
05:00	36.6	36.6	36.6	84	32.2	0	2	248	0.00	30.180 
05:05	36.5	36.5	36.5	85	32.4	0	2	225	0.00	30.180 
05:10	36.5	36.5	36.5	85	32.4	0	3	225	0.00	30.180 
05:15	36.5	36.5	36.5	85	32.4	0	3	225	0.00	30.188 
05:20	36.5	36.5	36.5	86	32.7	0	2	225	0.00	30.188 
05:25	36.3	36.3	36.3	86	32.5	1	3	225	0.00	30.188 
05:30	36.3	36.3	36.3	87	32.8	1	4	270	0.00	30.200 
05:35	36.3	36.3	36.3	87	32.8	0	3	270	0.00	30.200 
05:40	36.2	36.2	36.2	88	33.0	1	4	202	0.00	30.200 
05:45	36.0	36.0	36.0	88	32.8	0	3	202	0.00	30.203 
05:50	36.0	36.0	36.0	88	32.8	1	3	270	0.00	30.203 
05:55	35.9	35.9	35.9	88	32.7	0	2	270	0.00	30.203 
06:00	35.9	35.9	35.9	88	32.7	0	2	270	0.00	30.204 
06:05	35.8	35.8	35.8	88	32.6	0	3	248	0.00	30.204 
06:10	35.8	35.8	35.8	88	32.6	0	3	248	0.00	30.204 
06:15	35.8	35.8	35.8	87	32.3	1	4	338	0.00	30.209 
06:20	35.8	35.8	35.8	87	32.3	1	3	248	0.00	30.209 
06:25	35.8	35.8	35.8	86	32.0	0	3	248	0.00	30.209 
06:30	35.6	35.6	35.6	86	31.8	0	2	248	0.00	30.217 
06:35	35.6	35.6	35.6	85	31.5	0	1	248	0.00	30.217 
06:40	35.6	35.6	35.6	85	31.5	0	4	248	0.00	30.217 
06:45	35.6	35.6	35.6	85	31.5	0	2	248	0.00	30.221 
06:50	35.6	35.6	35.6	85	31.5	0	1	248	0.00	30.221 
06:55	35.6	35.6	35.6	85	31.5	0	2	338	0.00	30.221 
07:00	35.5	35.5	35.5	85	31.4	0	2	338	0.00	30.229 
07:05	35.5	35.5	35.5	84	31.2	1	3	0	0.00	30.229 
07:10	35.5	35.5	35.5	84	31.2	0	2	0	0.00	30.229 
07:15	35.6	35.6	35.6	84	31.3	2	4	270	0.00	30.235 
07:20	35.6	35.6	35.6	84	31.3	1	2	270	0.00	30.235 
07:25	35.6	35.6	35.6	84	31.3	0	2	248	0.00	30.235 
07:30	35.6	35.6	35.6	85	31.5	1	3	248	0.00	30.246 
07:35	35.6	35.6	35.6	84	31.3	0	2	248	0.00	30.246 
07:40	35.5	35.5	35.5	85	31.4	0	1	248	0.00	30.246 
07:45	35.5	35.5	35.5	85	31.4	0	1	248	0.00	30.250 
07:50	35.5	35.5	35.5	85	31.4	0	1	248	0.00	30.250 
07:55	35.3	35.3	35.3	85	31.2	0	1	248	0.00	30.250 
08:00	35.3	35.3	35.3	86	31.5	0	0	---	0.00	30.256 
08:05	35.3	35.3	35.3	86	31.5	0	0	---	0.00	30.256 
08:10	35.2	35.2	35.2	86	31.4	0	2	248	0.00	30.256 
08:15	35.2	35.2	35.2	86	31.4	0	1	248	0.00	30.254 
08:20	35.2	35.2	35.2	86	31.4	0	2	248	0.00	30.254 
08:25	35.2	35.2	35.2	87	31.7	0	1	248	0.00	30.254 
08:30	35.0	35.0	35.0	87	31.5	0	0	---	0.00	30.257 
08:35	35.0	35.0	35.0	87	31.5	0	0	---	0.00	30.257 
08:40	35.0	35.0	35.0	87	31.5	0	0	---	0.01	30.257 
08:45	34.9	34.9	34.9	88	31.7	0	0	---	0.00	30.261 
08:50	34.9	34.9	34.9	88	31.7	0	1	248	0.00	30.261 
08:55	34.9	34.9	34.9	88	31.7	0	1	248	0.00	30.261 
09:00	34.9	34.9	34.9	88	31.7	0	0	---	0.00	30.265 
09:05	34.9	34.9	34.9	89	32.0	0	0	---	0.00	30.265 
09:10	34.9	34.9	34.9	89	32.0	0	1	248	0.00	30.265 
09:15	34.9	34.9	34.9	89	32.0	0	0	---	0.00	30.269 
09:20	34.9	34.9	34.9	89	32.0	0	1	248	0.00	30.269 
09:25	34.9	34.9	34.9	89	32.0	0	0	---	0.00	30.269 
09:30	34.9	34.9	34.9	89	32.0	0	0	---	0.00	30.274 
09:35	34.9	34.9	34.9	89	32.0	0	0	---	0.00	30.274 
09:40	35.0	35.0	35.0	90	32.4	0	0	---	0.00	30.274 
09:45	35.0	35.0	35.0	90	32.4	0	0	---	0.00	30.278 
09:50	35.0	35.0	35.0	90	32.4	0	0	---	0.00	30.278 
09:55	35.0	35.0	35.0	90	32.4	0	0	---	0.00	30.278 
10:00	35.0	35.0	35.0	90	32.4	0	0	---	0.00	30.282 
10:05	35.0	35.0	35.0	90	32.4	0	0	---	0.00	30.282 
10:10	35.0	35.0	35.0	90	32.4	0	0	---	0.00	30.282 
10:15	35.2	35.2	35.2	90	32.6	0	0	---	0.00	30.288 
10:20	35.2	35.2	35.2	90	32.6	0	0	---	0.00	30.288 
10:25	35.3	35.3	35.3	90	32.7	0	0	---	0.00	30.288 
10:30	35.3	35.3	35.3	90	32.7	0	0	---	0.00	30.296 
10:35	35.3	35.3	35.3	90	32.7	0	0	---	0.00	30.296 
10:40	35.3	35.3	35.3	90	32.7	0	0	---	0.00	30.296 
10:45	35.5	35.5	35.5	90	32.9	0	0	---	0.00	30.297 
10:50	35.5	35.5	35.5	90	32.9	0	1	248	0.00	30.297 
10:55	35.5	35.5	35.5	89	32.6	0	0	---	0.00	30.297 
11:00	35.6	35.6	35.6	89	32.7	0	0	---	0.00	30.296 
11:05	35.6	35.6	35.6	89	32.7	0	0	---	0.00	30.296 
11:10	35.8	35.8	35.8	89	32.9	0	1	248	0.00	30.296 
11:15	35.6	35.6	35.6	89	32.7	0	0	---	0.00	30.295 
11:20	35.8	35.8	35.8	89	32.9	0	0	---	0.00	30.295 
11:25	35.8	35.8	35.8	89	32.9	0	0	---	0.00	30.295 
11:30	35.8	35.8	35.8	89	32.9	0	0	---	0.00	30.296 
11:35	35.9	35.9	35.9	89	33.0	0	1	248	0.00	30.296 
11:40	35.9	35.9	35.9	88	32.7	0	0	---	0.00	30.296 
11:45	35.9	35.9	35.9	88	32.7	0	0	---	0.00	30.292 
11:50	35.9	35.9	35.9	88	32.7	0	0	---	0.00	30.292 
11:55	36.0	36.0	36.0	88	32.8	0	1	248	0.00	30.292 
12:00	36.0	36.0	36.0	88	32.8	0	0	---	0.00	30.295 
12:05	36.0	36.0	36.0	88	32.8	0	0	---	0.00	30.295 
12:10	36.0	36.0	36.0	88	32.8	0	0	---	0.00	30.295 
12:15	36.0	36.0	36.0	87	32.5	0	0	---	0.00	30.285 
12:20	36.0	36.0	36.0	87	32.5	0	1	248	0.00	30.285 
12:25	35.9	35.9	35.9	87	32.4	0	0	---	0.00	30.285 
12:30	36.0	36.0	36.0	87	32.5	0	0	---	0.00	30.282 
12:35	35.9	35.9	35.9	87	32.4	0	1	248	0.00	30.282 
12:40	36.0	36.0	36.0	87	32.5	0	0	---	0.00	30.282 
12:45	36.0	36.0	36.0	87	32.5	0	0	---	0.00	30.275 
12:50	36.2	36.2	36.2	87	32.7	0	1	248	0.00	30.275 
12:55	36.0	36.0	36.0	86	32.2	0	2	248	0.01	30.275 
13:00	35.9	35.9	35.9	86	32.1	0	0	---	0.00	30.281 
13:05	35.8	35.8	35.8	86	32.0	0	2	248	0.00	30.281 
13:10	35.8	35.8	35.8	86	32.0	0	2	248	0.00	30.281 
13:15	35.8	35.8	35.8	85	31.7	0	1	248	0.00	30.282 
13:20	35.6	35.6	35.6	85	31.5	0	2	248	0.00	30.282 
13:25	35.6	35.6	35.6	85	31.5	0	0	---	0.00	30.282 
13:30	35.6	35.6	35.6	85	31.5	0	1	248	0.00	30.286 
13:35	35.6	35.6	35.6	85	31.5	0	1	248	0.00	30.286 
13:40	35.8	35.8	35.8	85	31.7	0	0	---	0.00	30.286 
13:45	35.8	35.8	35.8	85	31.7	0	0	---	0.00	30.286 
13:50	35.8	35.8	35.8	85	31.7	0	1	248	0.00	30.286 
13:55	35.8	35.8	35.8	85	31.7	0	1	248	0.00	30.286 
14:00	35.8	35.8	35.8	85	31.7	0	0	---	0.00	30.282 
14:05	35.8	35.8	35.8	85	31.7	0	1	248	0.00	30.282 
14:10	35.8	35.8	35.8	86	32.0	0	0	---	0.00	30.282 
14:15	35.9	35.9	35.9	85	31.8	0	0	---	0.00	30.281 
14:20	35.9	35.9	35.9	85	31.8	0	0	---	0.00	30.281 
14:25	35.9	35.9	35.9	85	31.8	0	0	---	0.00	30.281 
14:30	35.9	35.9	35.9	85	31.8	0	0	---	0.00	30.279 
14:35	35.9	35.9	35.9	85	31.8	0	1	248	0.00	30.279 
14:40	35.9	35.9	35.9	85	31.8	0	0	---	0.00	30.279 
14:45	36.0	36.0	36.0	84	31.6	0	0	---	0.00	30.276 
14:50	36.0	36.0	36.0	85	31.9	0	1	248	0.00	30.276 
14:55	36.0	36.0	36.0	84	31.6	0	1	248	0.00	30.276 
15:00	36.0	36.0	36.0	84	31.6	0	0	---	0.00	30.278 
15:05	36.0	36.0	36.0	84	31.6	0	2	248	0.00	30.278 
15:10	36.0	36.0	36.0	84	31.6	0	2	248	0.00	30.278 
15:15	35.9	35.9	35.9	84	31.5	0	1	248	0.00	30.274 
15:20	35.9	35.9	35.9	84	31.5	0	1	248	0.00	30.274 
15:25	35.9	35.9	35.9	84	31.5	0	1	248	0.00	30.274 
15:30	35.9	35.9	35.9	83	31.2	0	2	248	0.00	30.281 
15:35	35.9	35.9	35.9	83	31.2	0	1	248	0.00	30.281 
15:40	35.9	35.9	35.9	83	31.2	0	2	248	0.00	30.281 
15:45	35.9	35.9	35.9	83	31.2	0	1	248	0.00	30.283 
15:50	35.9	35.9	35.9	82	31.0	0	1	248	0.00	30.283 
15:55	35.9	35.9	35.9	82	31.0	0	1	248	0.00	30.283 
16:00	35.9	35.9	35.9	83	31.2	0	1	248	0.00	30.281 
16:05	35.8	35.8	35.8	82	30.9	0	1	248	0.00	30.281 
16:10	35.8	35.8	35.8	82	30.9	0	1	248	0.00	30.281 
16:15	35.8	35.8	35.8	82	30.9	0	1	248	0.00	30.283 
16:20	35.6	35.6	35.6	82	30.7	0	2	248	0.00	30.283 
16:25	35.6	35.6	35.6	82	30.7	0	2	248	0.00	30.283 
16:30	35.6	35.6	35.6	82	30.7	0	1	248	0.00	30.285 
16:35	35.5	35.5	35.5	82	30.6	0	2	315	0.00	30.285 
16:40	35.5	35.5	35.5	82	30.6	0	2	315	0.00	30.285 
16:45	35.3	35.3	35.3	82	30.4	0	2	315	0.00	30.293 
16:50	35.3	35.3	35.3	82	30.4	0	1	315	0.00	30.293 
16:55	35.3	35.3	35.3	82	30.4	0	1	315	0.00	30.293 
17:00	35.3	35.3	35.3	82	30.4	0	2	248	0.00	30.298 
17:05	35.2	35.2	35.2	82	30.3	0	1	248	0.00	30.298 
17:10	35.2	35.2	35.2	82	30.3	0	1	248	0.00	30.298 
17:15	35.0	35.0	35.0	82	30.1	0	0	---	0.00	30.290 
17:20	35.0	35.0	35.0	82	30.1	0	1	248	0.00	30.290 
17:25	34.9	34.9	34.9	82	30.0	0	3	248	0.00	30.290 
17:30	34.7	34.7	34.7	82	29.8	0	0	---	0.00	30.300 
17:35	34.7	34.7	34.7	82	29.8	0	0	---	0.00	30.300 
17:40	34.7	34.7	34.7	82	29.8	0	1	248	0.00	30.300 
17:45	34.7	34.7	34.7	82	29.8	0	1	248	0.00	30.295 
17:50	34.7	34.7	34.7	82	29.8	0	1	248	0.00	30.295 
17:55	34.6	34.6	34.6	83	30.0	0	0	---	0.00	30.295 
18:00	34.6	34.6	34.6	83	30.0	0	0	---	0.00	30.296 
18:05	34.6	34.6	34.6	83	30.0	0	1	248	0.00	30.296 
18:10	34.6	34.6	34.6	83	30.0	0	2	248	0.00	30.296 
18:15	34.4	34.4	34.4	82	29.5	0	0	---	0.00	30.302 
18:20	34.4	34.4	34.4	82	29.5	0	0	---	0.00	30.302 
18:25	34.4	34.4	34.4	82	29.5	0	0	---	0.00	30.302 
18:30	34.3	34.3	34.3	83	29.7	0	0	---	0.00	30.303 
18:35	34.3	34.3	34.3	83	29.7	0	0	---	0.00	30.303 
18:40	34.1	34.1	34.1	83	29.5	0	0	---	0.00	30.303 
18:45	34.1	34.1	34.1	84	29.8	0	0	---	0.00	30.301 
18:50	34.1	34.1	34.1	84	29.8	0	0	---	0.00	30.301 
18:55	34.0	34.0	34.0	84	29.7	0	0	---	0.00	30.301 
19:00	34.0	34.0	34.0	84	29.7	0	0	---	0.00	30.297 
19:05	34.0	34.0	34.0	84	29.7	0	0	---	0.00	30.297 
19:10	34.0	34.0	34.0	84	29.7	0	1	248	0.00	30.297 
19:15	34.0	34.0	34.0	84	29.7	0	1	248	0.00	30.298 
19:20	34.0	34.0	34.0	83	29.4	0	2	248	0.00	30.298 
19:25	34.0	34.0	34.0	82	29.1	0	1	248	0.00	30.298 
19:30	34.0	34.0	34.0	82	29.1	0	2	248	0.00	30.289 
19:35	34.0	34.0	34.0	81	28.8	0	1	248	0.00	30.289 
19:40	34.0	34.0	34.0	81	28.8	0	0	---	0.00	30.289 
19:45	34.0	34.0	34.0	81	28.8	0	0	---	0.00	30.290 
19:50	34.0	34.0	34.0	82	29.1	0	0	---	0.00	30.290 
19:55	34.0	34.0	34.0	82	29.1	0	0	---	0.00	30.290 
20:00	33.8	33.8	33.8	83	29.2	0	0	---	0.00	30.286 
20:05	33.8	33.8	33.8	83	29.2	0	2	248	0.00	30.286 
20:10	33.8	33.8	33.8	83	29.2	0	1	248	0.00	30.286 
20:15	33.7	33.7	33.7	83	29.1	0	0	---	0.00	30.290 
20:20	33.7	33.7	33.7	82	28.8	0	1	248	0.00	30.290 
20:25	33.8	33.8	33.8	82	28.9	0	0	---	0.00	30.290 
20:30	33.7	33.7	33.7	83	29.1	0	1	248	0.00	30.293 
20:35	33.8	33.8	33.8	83	29.2	0	2	248	0.00	30.293 
20:40	33.8	33.8	33.8	83	29.2	0	2	248	0.00	30.293 
20:45	34.0	34.0	34.0	83	29.4	0	2	248	0.00	30.298 
20:50	34.0	34.0	34.0	83	29.4	0	2	248	0.00	30.298 
20:55	34.0	34.0	34.0	84	29.7	0	2	248	0.00	30.298 
21:00	34.0	34.0	34.0	84	29.7	0	2	248	0.00	30.292 
21:05	34.0	34.0	34.0	84	29.7	0	2	248	0.00	30.292 
21:10	34.1	34.1	34.1	84	29.8	1	2	270	0.00	30.292 
21:15	34.1	34.1	34.1	84	29.8	0	2	248	0.00	30.294 
21:20	34.1	34.1	34.1	84	29.8	0	2	248	0.00	30.294 
21:25	34.1	34.1	34.1	85	30.1	0	2	248	0.00	30.294 
21:30	34.1	34.1	34.1	85	30.1	1	2	248	0.00	30.289 
21:35	34.1	34.1	34.1	85	30.1	0	2	248	0.00	30.289 
21:40	34.1	34.1	34.1	85	30.1	0	3	248	0.00	30.289 
21:45	34.1	34.1	34.1	85	30.1	0	3	248	0.00	30.289 
21:50	34.0	34.0	34.0	85	30.0	1	4	248	0.00	30.289 
21:55	33.8	33.8	33.8	85	29.8	1	5	248	0.00	30.289 
22:00	33.8	33.8	33.8	85	29.8	0	2	248	0.00	30.282 
22:05	33.7	33.7	33.7	85	29.7	1	3	248	0.00	30.282 
22:10	33.7	33.7	33.7	85	29.7	1	5	248	0.00	30.282 
22:15	33.7	33.7	33.7	85	29.7	0	3	248	0.00	30.274 
22:20	33.7	33.7	33.7	85	29.7	1	4	248	0.00	30.274 
22:25	33.5	33.5	33.5	86	29.8	1	5	248	0.00	30.274 
22:30	33.5	33.5	33.5	86	29.8	1	4	248	0.00	30.271 
22:35	33.4	33.4	33.4	86	29.7	1	3	248	0.00	30.271 
22:40	33.4	33.4	33.4	86	29.7	0	2	248	0.00	30.271 
22:45	33.4	33.4	33.4	87	30.0	0	2	248	0.00	30.269 
22:50	33.4	33.4	33.4	87	30.0	1	2	248	0.00	30.269 
22:55	33.2	33.2	33.2	87	29.8	1	3	248	0.00	30.269 
23:00	33.2	33.2	33.2	87	29.8	1	3	248	0.00	30.267 
23:05	33.2	33.2	33.2	88	30.0	0	2	248	0.00	30.267 
23:10	33.2	33.2	33.2	88	30.0	0	2	248	0.00	30.267 
23:15	33.2	33.2	33.2	88	30.0	1	4	248	0.00	30.270 
23:20	33.2	33.2	33.2	88	30.0	0	2	248	0.00	30.270 
23:25	33.2	33.2	33.2	88	30.0	1	4	248	0.00	30.270 
23:30	33.1	33.1	33.1	88	29.9	1	4	225	0.00	30.269 
23:35	33.1	33.1	33.1	88	29.9	1	5	225	0.00	30.269 
23:40	33.1	33.1	33.1	88	29.9	1	4	248	0.00	30.269 
23:45	33.1	33.1	33.1	88	29.9	1	3	248	0.00	30.274 
23:50	33.1	33.1	33.1	88	29.9	1	4	248	0.00	30.274 
23:55	33.1	33.1	33.1	88	29.9	1	4	248	0.00	30.274 

CoCoRaHS
IN-AL-39
A2 Web Hosting
Creative Commons License
GoDaddy
search engine by freefind advanced

loaded 2018-11-12 19:42:00 • last modified 2010-11-18 10:43:29
Privacy PolicyDisclaimer
• wx.awcolley.com is powered by PmWiki v.2002016 •
• all content (unless otherwise noted) © 2018 A W Colley